createdAt,value
2018-12-11T00:01:59.539Z,3.10
2018-12-11T00:04:27.675Z,2.43
2018-12-11T00:06:55.833Z,3.00
2018-12-11T00:09:23.947Z,2.90
2018-12-11T00:11:52.073Z,2.67
2018-12-11T00:14:20.217Z,2.97
2018-12-11T00:16:48.378Z,2.73
2018-12-11T00:19:16.528Z,3.07
2018-12-11T00:21:44.644Z,3.23
2018-12-11T00:24:12.775Z,2.50
2018-12-11T00:26:40.920Z,2.73
2018-12-11T00:29:09.048Z,2.20
2018-12-11T00:31:37.205Z,3.47
2018-12-11T00:34:05.344Z,2.93
2018-12-11T00:36:33.472Z,2.60
2018-12-11T00:39:01.626Z,3.23
2018-12-11T00:41:29.762Z,2.97
2018-12-11T00:43:58.139Z,3.30
2018-12-11T00:46:26.303Z,2.60
2018-12-11T00:48:54.447Z,2.73
2018-12-11T00:51:22.607Z,2.67
2018-12-11T00:53:50.757Z,2.73
2018-12-11T00:56:18.899Z,3.37
2018-12-11T00:58:47.008Z,3.10
2018-12-11T01:01:15.146Z,2.90
2018-12-11T01:03:43.317Z,3.10
2018-12-11T01:06:11.446Z,2.77
2018-12-11T01:08:39.646Z,2.80
2018-12-11T01:11:07.787Z,2.40
2018-12-11T01:13:36.028Z,2.60
2018-12-11T01:16:04.139Z,2.93
2018-12-11T01:18:32.261Z,2.67
2018-12-11T01:21:00.412Z,2.43
2018-12-11T01:23:28.513Z,2.50
2018-12-11T01:25:56.653Z,2.43
2018-12-11T01:28:24.784Z,2.10
2018-12-11T01:30:53.033Z,3.27
2018-12-11T01:33:21.152Z,2.60
2018-12-11T01:35:49.276Z,2.30
2018-12-11T01:38:17.426Z,2.87
2018-12-11T01:40:45.538Z,2.60
2018-12-11T01:43:13.709Z,2.33
2018-12-11T01:45:41.822Z,2.37
2018-12-11T01:48:09.969Z,2.63
2018-12-11T01:50:38.083Z,3.50
2018-12-11T01:53:06.503Z,2.63
2018-12-11T01:55:34.640Z,2.80
2018-12-11T02:00:37.279Z,2.63
2018-12-11T02:03:05.522Z,2.97
2018-12-11T02:05:33.654Z,2.83
2018-12-11T02:08:01.770Z,2.90
2018-12-11T02:10:30.004Z,3.27
2018-12-11T02:12:58.136Z,2.03
2018-12-11T02:15:26.279Z,2.60
2018-12-11T02:17:54.408Z,2.60
2018-12-11T02:20:22.506Z,2.83
2018-12-11T02:22:50.647Z,2.97
2018-12-11T02:25:18.822Z,2.70
2018-12-11T02:27:47.055Z,3.23
2018-12-11T02:30:15.196Z,2.97
2018-12-11T02:32:43.342Z,2.67
2018-12-11T02:35:11.496Z,2.00
2018-12-11T02:37:39.691Z,2.47
2018-12-11T02:40:08.025Z,2.80
2018-12-11T02:42:36.139Z,2.37
2018-12-11T02:45:05.040Z,2.70
2018-12-11T02:47:33.180Z,2.77
2018-12-11T02:50:01.319Z,2.43
2018-12-11T02:52:29.459Z,3.23
2018-12-11T02:54:57.600Z,3.03
2018-12-11T02:57:25.728Z,2.77
2018-12-11T02:59:53.865Z,2.33
2018-12-11T03:02:22.112Z,2.73
2018-12-11T03:04:50.233Z,2.60
2018-12-11T03:07:18.366Z,2.67
2018-12-11T03:09:46.532Z,2.80
2018-12-11T03:12:14.686Z,2.53
2018-12-11T03:14:42.840Z,3.00
2018-12-11T03:17:10.974Z,3.13
2018-12-11T03:19:39.162Z,2.73
2018-12-11T03:22:07.270Z,1.93
2018-12-11T03:24:35.387Z,2.90
2018-12-11T03:27:03.531Z,2.20
2018-12-11T03:29:31.659Z,2.00
2018-12-11T03:31:59.791Z,2.60
2018-12-11T03:34:27.911Z,2.33
2018-12-11T03:36:56.043Z,2.67
2018-12-11T03:39:24.172Z,2.33
2018-12-11T03:41:52.473Z,2.23
2018-12-11T03:44:20.627Z,2.30
2018-12-11T03:46:48.734Z,2.20
2018-12-11T03:49:16.887Z,4.17
2018-12-11T03:51:45.016Z,2.30
2018-12-11T03:54:13.132Z,2.60
2018-12-11T03:56:41.295Z,1.97
2018-12-11T03:59:09.445Z,3.00
2018-12-11T04:01:37.664Z,2.23
2018-12-11T04:04:05.794Z,2.53
2018-12-11T04:06:33.991Z,2.20
2018-12-11T04:09:02.116Z,2.47
2018-12-11T04:11:30.229Z,2.00
2018-12-11T04:13:58.388Z,2.43
2018-12-11T04:16:26.520Z,1.90
2018-12-11T04:18:54.683Z,2.57
2018-12-11T04:21:22.791Z,2.00
2018-12-11T04:23:50.946Z,1.70
2018-12-11T04:26:19.146Z,2.80
2018-12-11T04:28:47.319Z,1.43
2018-12-11T04:31:15.559Z,2.67
2018-12-11T04:33:43.671Z,2.03
2018-12-11T04:36:11.924Z,1.77
2018-12-11T04:38:40.045Z,2.10
2018-12-11T04:41:08.272Z,2.67
2018-12-11T04:43:36.413Z,1.87
2018-12-11T04:46:04.581Z,1.90
2018-12-11T04:48:32.719Z,1.90
2018-12-11T04:51:00.857Z,2.37
2018-12-11T04:53:29.012Z,2.40
2018-12-11T04:55:57.106Z,2.27
2018-12-11T04:58:25.224Z,1.83
2018-12-11T05:00:53.324Z,2.37
2018-12-11T05:03:21.497Z,2.40
2018-12-11T05:05:49.630Z,1.90
2018-12-11T05:08:17.737Z,2.57
2018-12-11T05:10:45.864Z,2.30
2018-12-11T05:13:13.965Z,1.93
2018-12-11T05:15:42.111Z,1.87
2018-12-11T05:18:10.217Z,2.40
2018-12-11T05:20:38.480Z,1.93
2018-12-11T05:23:06.584Z,2.27
2018-12-11T05:25:34.713Z,2.10
2018-12-11T05:28:02.842Z,2.03
2018-12-11T05:30:30.961Z,2.17
2018-12-11T05:32:59.232Z,1.80
2018-12-11T05:35:27.352Z,2.40
2018-12-11T05:37:55.476Z,2.10
2018-12-11T05:40:23.620Z,2.27
2018-12-11T05:42:51.851Z,2.10
2018-12-11T05:45:19.962Z,2.20
2018-12-11T05:47:48.061Z,2.33
2018-12-11T05:50:16.190Z,1.70
2018-12-11T05:52:44.313Z,2.43
2018-12-11T05:55:12.472Z,2.37
2018-12-11T05:57:40.620Z,1.70
2018-12-11T06:00:10.186Z,2.10
2018-12-11T06:02:38.379Z,1.97
2018-12-11T06:05:08.002Z,1.83
2018-12-11T06:07:36.129Z,1.93
2018-12-11T06:10:05.224Z,2.03
2018-12-11T06:12:33.391Z,1.97
2018-12-11T06:15:01.512Z,1.70
2018-12-11T06:17:29.644Z,2.07
2018-12-11T06:19:57.770Z,1.90
2018-12-11T06:22:25.916Z,2.60
2018-12-11T06:24:54.021Z,2.10
2018-12-11T06:27:22.137Z,1.93
2018-12-11T06:29:50.248Z,2.00
2018-12-11T06:32:18.337Z,1.93
2018-12-11T06:34:46.481Z,1.87
2018-12-11T06:37:14.605Z,1.70
2018-12-11T06:39:42.873Z,1.93
2018-12-11T06:42:10.987Z,1.70
2018-12-11T06:44:39.107Z,2.57
2018-12-11T06:47:07.230Z,1.70
2018-12-11T06:49:35.354Z,2.00
2018-12-11T06:52:03.485Z,1.93
2018-12-11T06:54:31.652Z,2.10
2018-12-11T06:56:59.758Z,2.13
2018-12-11T06:59:27.898Z,1.77
2018-12-11T07:01:56.072Z,1.93
2018-12-11T07:04:24.215Z,1.90
2018-12-11T07:06:52.341Z,1.97
2018-12-11T07:09:20.455Z,2.40
2018-12-11T07:11:48.568Z,1.73
2018-12-11T07:14:16.687Z,2.13
2018-12-11T07:16:45.132Z,1.90
2018-12-11T07:19:13.305Z,1.83
2018-12-11T07:21:41.426Z,2.27
2018-12-11T07:24:09.572Z,1.70
2018-12-11T07:26:37.726Z,2.13
2018-12-11T07:29:05.848Z,2.00
2018-12-11T07:31:34.004Z,1.93
2018-12-11T07:34:02.096Z,2.03
2018-12-11T07:36:30.197Z,2.30
2018-12-11T07:38:58.332Z,2.17
2018-12-11T07:41:26.576Z,2.50
2018-12-11T07:43:54.694Z,2.43
2018-12-11T07:46:22.795Z,1.70
2018-12-11T07:48:51.049Z,2.07
2018-12-11T07:51:20.089Z,2.97
2018-12-11T07:53:48.243Z,2.13
2018-12-11T07:56:16.353Z,1.97
2018-12-11T07:58:44.471Z,2.00
2018-12-11T08:01:12.593Z,1.70
2018-12-11T08:03:40.741Z,2.10
2018-12-11T08:06:08.869Z,2.40
2018-12-11T08:08:36.969Z,1.97
2018-12-11T08:11:05.088Z,2.20
2018-12-11T08:13:33.250Z,2.40
2018-12-11T08:16:01.360Z,2.27
2018-12-11T08:18:29.462Z,1.97
2018-12-11T08:20:57.603Z,2.03
2018-12-11T08:23:25.697Z,2.27
2018-12-11T08:25:53.913Z,2.00
2018-12-11T08:28:22.168Z,2.37
2018-12-11T08:30:50.286Z,2.10
2018-12-11T08:33:18.407Z,2.00
2018-12-11T08:35:46.560Z,2.00
2018-12-11T08:38:14.811Z,2.00
2018-12-11T08:40:43.011Z,2.63
2018-12-11T08:43:11.141Z,2.37
2018-12-11T08:45:39.260Z,1.93
2018-12-11T08:48:08.646Z,2.70
2018-12-11T08:50:36.762Z,2.57
2018-12-11T08:53:05.961Z,2.00
2018-12-11T08:55:34.199Z,2.30
2018-12-11T08:58:02.343Z,2.27
2018-12-11T09:00:30.474Z,2.10
2018-12-11T09:02:58.744Z,2.40
2018-12-11T09:05:26.883Z,3.37
2018-12-11T09:07:55.000Z,2.27
2018-12-11T09:10:23.268Z,2.30
2018-12-11T09:12:51.373Z,2.10
2018-12-11T09:15:19.479Z,2.00
2018-12-11T09:17:47.634Z,2.00
2018-12-11T09:20:15.735Z,2.43
2018-12-11T09:22:43.856Z,2.00
2018-12-11T09:25:11.988Z,2.23
2018-12-11T09:27:40.157Z,2.13
2018-12-11T09:30:08.733Z,2.60
2018-12-11T09:32:36.881Z,1.70
2018-12-11T09:35:05.178Z,1.97
2018-12-11T09:37:33.344Z,2.30
2018-12-11T09:40:01.470Z,2.23
2018-12-11T09:42:29.597Z,2.70
2018-12-11T09:44:57.727Z,2.10
2018-12-11T09:47:26.429Z,3.03
2018-12-11T09:49:54.677Z,2.50
2018-12-11T09:52:22.782Z,2.40
2018-12-11T09:54:50.885Z,2.20
2018-12-11T09:57:19.017Z,2.23
2018-12-11T09:59:47.141Z,2.27
2018-12-11T10:02:15.261Z,2.23
2018-12-11T10:04:43.381Z,2.17
2018-12-11T10:07:11.532Z,2.27
2018-12-11T10:09:39.638Z,2.67
2018-12-11T10:12:07.895Z,2.30
2018-12-11T10:14:36.034Z,2.53
2018-12-11T10:17:04.155Z,2.53
2018-12-11T10:19:32.305Z,2.20
2018-12-11T10:22:00.508Z,2.40
2018-12-11T10:24:28.731Z,1.90
2018-12-11T10:26:56.978Z,2.13
2018-12-11T10:29:25.101Z,2.00
2018-12-11T10:31:53.231Z,2.53
2018-12-11T10:34:21.366Z,2.47
2018-12-11T10:36:50.152Z,2.60
2018-12-11T10:39:18.252Z,2.83
2018-12-11T10:41:46.385Z,2.30
2018-12-11T10:44:14.500Z,2.63
2018-12-11T10:46:42.624Z,3.00
2018-12-11T10:49:10.759Z,2.30
2018-12-11T10:51:38.870Z,2.67
2018-12-11T10:54:07.048Z,2.60
2018-12-11T10:56:35.168Z,2.50
2018-12-11T10:59:03.277Z,2.23
2018-12-11T11:01:33.523Z,2.60
2018-12-11T11:04:01.821Z,2.23
2018-12-11T11:06:29.921Z,2.63
2018-12-11T11:08:58.320Z,3.10
2018-12-11T11:11:26.567Z,2.37
2018-12-11T11:13:54.708Z,2.90
2018-12-11T11:16:22.833Z,1.90
2018-12-11T11:18:51.004Z,3.20
2018-12-11T11:21:19.118Z,1.90
2018-12-11T11:23:47.288Z,2.37
2018-12-11T11:26:15.566Z,2.80
2018-12-11T11:28:43.708Z,2.70
2018-12-11T11:31:11.831Z,2.67
2018-12-11T11:33:40.007Z,2.93
2018-12-11T11:36:08.153Z,2.70
2018-12-11T11:38:36.260Z,2.27
2018-12-11T11:41:04.403Z,3.00
2018-12-11T11:43:32.530Z,3.10
2018-12-11T11:46:00.659Z,2.87
2018-12-11T11:48:28.784Z,2.70
2018-12-11T11:50:56.910Z,2.73
2018-12-11T11:53:25.020Z,2.67
2018-12-11T11:55:53.150Z,2.10
2018-12-11T11:58:21.251Z,3.03
2018-12-11T12:00:49.408Z,2.87
2018-12-11T12:03:17.542Z,2.50
2018-12-11T12:05:45.646Z,2.97
2018-12-11T12:08:13.789Z,2.93
2018-12-11T12:10:42.435Z,3.07
2018-12-11T12:13:10.593Z,2.70
2018-12-11T12:15:38.698Z,2.63
2018-12-11T12:18:06.945Z,2.93
2018-12-11T12:20:35.055Z,2.43
2018-12-11T12:23:03.204Z,2.60
2018-12-11T12:25:31.428Z,3.10
2018-12-11T12:27:59.753Z,2.97
2018-12-11T12:30:28.773Z,3.37
2018-12-11T12:32:56.916Z,2.80
2018-12-11T12:35:25.065Z,2.40
2018-12-11T12:37:53.208Z,2.40
2018-12-11T12:40:21.314Z,2.20
2018-12-11T12:42:49.806Z,2.60
2018-12-11T12:45:17.934Z,3.00
2018-12-11T12:47:46.090Z,2.77
2018-12-11T12:50:14.194Z,3.10
2018-12-11T12:52:42.441Z,2.10
2018-12-11T12:55:10.550Z,2.27
2018-12-11T12:57:38.652Z,2.87
2018-12-11T13:00:08.900Z,2.60
2018-12-11T13:02:37.032Z,2.97
2018-12-11T13:05:05.341Z,2.43
2018-12-11T13:07:33.469Z,2.80
2018-12-11T13:10:01.651Z,2.90
2018-12-11T13:12:30.174Z,2.90
2018-12-11T13:14:58.805Z,2.53
2018-12-11T13:17:27.097Z,2.90
2018-12-11T13:19:55.234Z,2.97
2018-12-11T13:22:23.359Z,2.80
2018-12-11T13:24:51.496Z,3.13
2018-12-11T13:27:19.655Z,2.67
2018-12-11T13:29:47.780Z,2.93
2018-12-11T13:32:16.037Z,2.67
2018-12-11T13:34:44.141Z,2.40
2018-12-11T13:37:12.375Z,3.47
2018-12-11T13:39:40.529Z,2.83
2018-12-11T13:42:08.809Z,2.73
2018-12-11T13:44:37.051Z,3.23
2018-12-11T13:47:05.183Z,2.37
2018-12-11T13:49:33.280Z,2.93
2018-12-11T13:52:01.419Z,3.53
2018-12-11T13:54:29.554Z,3.90
2018-12-11T13:56:57.807Z,3.90
2018-12-11T13:59:26.055Z,3.50
2018-12-11T14:01:54.204Z,3.43
2018-12-11T14:04:22.305Z,3.77
2018-12-11T14:06:50.462Z,2.70
2018-12-11T14:09:24.253Z,3.60
2018-12-11T14:11:52.492Z,3.83
2018-12-11T14:14:20.601Z,3.50
2018-12-11T14:16:48.705Z,3.53
2018-12-11T14:19:17.016Z,2.87
2018-12-11T14:21:45.135Z,3.30
2018-12-11T14:24:13.242Z,2.80
2018-12-11T14:26:41.372Z,3.17
2018-12-11T14:29:09.632Z,3.30
2018-12-11T14:31:37.728Z,2.83
2018-12-11T14:34:05.880Z,2.90
2018-12-11T14:36:33.997Z,3.40
2018-12-11T14:39:02.204Z,2.80
2018-12-11T14:41:30.351Z,2.87
2018-12-11T14:43:58.457Z,4.33
2018-12-11T14:46:26.607Z,3.73
2018-12-11T14:48:54.728Z,3.43
2018-12-11T14:51:22.856Z,3.17
2018-12-11T14:53:50.952Z,3.93
2018-12-11T14:56:19.109Z,4.13
2018-12-11T14:58:47.243Z,3.30
2018-12-11T15:01:15.381Z,3.60
2018-12-11T15:03:43.487Z,3.60
2018-12-11T15:06:11.623Z,3.00
2018-12-11T15:08:39.739Z,3.30
2018-12-11T15:11:07.838Z,3.80
2018-12-11T15:13:35.982Z,4.00
2018-12-11T15:16:04.560Z,3.20
2018-12-11T15:18:32.687Z,4.30
2018-12-11T15:21:00.816Z,4.47
2018-12-11T15:23:28.979Z,4.83
2018-12-11T15:25:57.101Z,4.03
2018-12-11T15:28:25.210Z,4.23
2018-12-11T15:31:01.308Z,3.43
2018-12-11T15:33:29.404Z,4.23
2018-12-11T15:35:57.596Z,3.23
2018-12-11T15:38:25.704Z,3.17
2018-12-11T15:40:53.833Z,3.60
2018-12-11T15:43:22.533Z,3.43
2018-12-11T15:45:50.863Z,2.67
2018-12-11T15:48:18.986Z,3.00
2018-12-11T15:50:47.115Z,3.07
2018-12-11T15:53:15.260Z,3.03
2018-12-11T15:55:43.360Z,2.30
2018-12-11T15:58:11.514Z,2.90
2018-12-11T16:00:39.642Z,2.67
2018-12-11T16:03:07.803Z,3.20
2018-12-11T16:05:36.545Z,2.80
2018-12-11T16:08:04.646Z,3.00
2018-12-11T16:10:32.768Z,2.30
2018-12-11T16:13:00.904Z,2.57
2018-12-11T16:15:29.072Z,3.23
2018-12-11T16:17:57.202Z,3.00
2018-12-11T16:20:25.306Z,3.00
2018-12-11T16:22:53.434Z,2.53
2018-12-11T16:25:21.580Z,3.47
2018-12-11T16:27:49.729Z,3.87
2018-12-11T16:30:17.969Z,3.70
2018-12-11T16:32:46.073Z,3.70
2018-12-11T16:35:14.230Z,3.80
2018-12-11T16:37:42.536Z,3.37
2018-12-11T16:40:10.694Z,3.07
2018-12-11T16:42:38.789Z,2.80
2018-12-11T16:45:07.011Z,2.90
2018-12-11T16:47:35.142Z,2.30
2018-12-11T16:50:03.432Z,2.10
2018-12-11T16:52:31.557Z,2.10
2018-12-11T16:54:59.761Z,2.00
2018-12-11T16:57:27.895Z,1.90
2018-12-11T16:59:56.040Z,1.90
2018-12-11T17:02:24.143Z,1.53
2018-12-11T17:04:52.266Z,1.80
2018-12-11T17:07:20.597Z,1.60
2018-12-11T17:09:48.835Z,1.73
2018-12-11T17:12:17.040Z,1.67
2018-12-11T17:14:45.163Z,1.40
2018-12-11T17:17:13.298Z,1.63
2018-12-11T17:19:41.393Z,1.57
2018-12-11T17:22:09.555Z,1.70
2018-12-11T17:24:37.644Z,1.43
2018-12-11T17:27:05.774Z,1.53
2018-12-11T17:29:33.923Z,1.20
2018-12-11T17:32:02.026Z,1.20
2018-12-11T17:34:30.158Z,1.47
2018-12-11T17:36:58.277Z,1.10
2018-12-11T17:39:26.412Z,1.00
2018-12-11T17:41:54.518Z,1.60
2018-12-11T17:44:22.633Z,1.60
2018-12-11T17:46:50.763Z,1.40
2018-12-11T17:49:18.922Z,1.10
2018-12-11T17:51:47.182Z,1.13
2018-12-11T17:54:15.291Z,1.20
2018-12-11T17:56:43.609Z,1.87
2018-12-11T17:59:11.949Z,1.10
2018-12-11T18:01:41.011Z,1.40
2018-12-11T18:04:09.134Z,1.30
2018-12-11T18:06:37.236Z,1.43
2018-12-11T18:09:07.129Z,1.20
2018-12-11T18:11:35.239Z,1.70
2018-12-11T18:14:03.474Z,1.47
2018-12-11T18:16:31.568Z,1.40
2018-12-11T18:19:00.497Z,1.10
2018-12-11T18:21:28.678Z,1.40
2018-12-11T18:23:57.327Z,1.20
2018-12-11T18:26:25.472Z,1.23
2018-12-11T18:28:53.800Z,1.13
2018-12-11T18:31:21.952Z,1.67
2018-12-11T18:33:50.075Z,1.33
2018-12-11T18:36:18.205Z,1.50
2018-12-11T18:38:46.428Z,1.40
2018-12-11T18:41:14.539Z,1.60
2018-12-11T18:43:42.718Z,1.50
2018-12-11T18:46:10.820Z,1.40
2018-12-11T18:48:39.014Z,1.40
2018-12-11T18:51:07.455Z,1.67
2018-12-11T18:53:35.708Z,1.77
2018-12-11T18:56:03.896Z,1.47
2018-12-11T18:58:34.432Z,2.00
2018-12-11T19:01:02.530Z,2.03
2018-12-11T19:03:31.043Z,1.90
2018-12-11T19:05:59.302Z,1.57
2018-12-11T19:08:30.128Z,1.67
2018-12-11T19:10:59.660Z,2.20
2018-12-11T19:13:28.137Z,1.80
2018-12-11T19:15:57.146Z,2.03
2018-12-11T19:18:25.725Z,1.60
2018-12-11T19:20:54.035Z,2.00
2018-12-11T19:23:26.366Z,2.00
2018-12-11T19:25:54.702Z,2.00
2018-12-11T19:28:23.004Z,1.70
2018-12-11T19:30:51.255Z,2.40
2018-12-11T19:33:19.548Z,2.00
2018-12-11T19:35:47.786Z,2.10
2018-12-11T19:38:16.350Z,2.67
2018-12-11T19:40:44.915Z,2.63
2018-12-11T19:43:13.335Z,2.77
2018-12-11T19:45:41.469Z,2.80
2018-12-11T19:48:09.671Z,3.30
2018-12-11T19:50:38.232Z,2.20
2018-12-11T19:53:06.535Z,2.47
2018-12-11T19:55:34.781Z,2.50
2018-12-11T19:58:03.250Z,2.33
2018-12-11T20:00:31.501Z,2.00
2018-12-11T20:02:59.597Z,2.40
2018-12-11T20:05:27.984Z,2.27
2018-12-11T20:07:56.235Z,2.60
2018-12-11T20:10:26.345Z,2.60
2018-12-11T20:12:54.581Z,2.87
2018-12-11T20:15:22.693Z,2.00
2018-12-11T20:17:50.826Z,2.20
2018-12-11T20:20:25.665Z,2.20
2018-12-11T20:22:53.787Z,2.50
2018-12-11T20:25:22.022Z,2.40
2018-12-11T20:27:50.152Z,2.80
2018-12-11T20:30:18.502Z,2.53
2018-12-11T20:32:46.724Z,2.90
2018-12-11T20:35:14.881Z,2.10
2018-12-11T20:37:42.997Z,2.50
2018-12-11T20:40:11.318Z,2.40
2018-12-11T20:42:40.167Z,2.53
2018-12-11T20:45:08.286Z,2.20
2018-12-11T20:47:36.547Z,2.47
2018-12-11T20:50:05.273Z,3.20
2018-12-11T20:52:33.437Z,1.83
2018-12-11T20:55:01.978Z,3.10
2018-12-11T20:57:30.205Z,2.70
2018-12-11T20:59:58.488Z,3.13
2018-12-11T21:02:26.625Z,2.70
2018-12-11T21:04:54.758Z,3.00
2018-12-11T21:07:22.892Z,2.70
2018-12-11T21:09:51.106Z,3.10
2018-12-11T21:12:19.309Z,3.03
2018-12-11T21:14:47.459Z,3.17
2018-12-11T21:17:15.616Z,2.87
2018-12-11T21:19:43.749Z,2.40
2018-12-11T21:22:11.841Z,2.80
2018-12-11T21:24:39.991Z,3.40
2018-12-11T21:27:08.301Z,3.43
2018-12-11T21:29:36.631Z,2.70
2018-12-11T21:32:04.741Z,3.10
2018-12-11T21:34:33.092Z,3.47
2018-12-11T21:37:01.285Z,3.40
2018-12-11T21:39:29.386Z,3.20
2018-12-11T21:41:57.688Z,3.00
2018-12-11T21:44:25.866Z,3.03
2018-12-11T21:46:54.679Z,3.20
2018-12-11T21:49:22.831Z,3.70
2018-12-11T21:51:50.953Z,3.50
2018-12-11T21:54:19.094Z,3.03
2018-12-11T21:56:49.752Z,3.40
2018-12-11T21:59:17.909Z,3.70
2018-12-11T22:01:46.035Z,3.87
2018-12-11T22:04:14.169Z,3.23
2018-12-11T22:06:42.308Z,3.40
2018-12-11T22:09:10.400Z,3.93
2018-12-11T22:11:38.530Z,4.17
2018-12-11T22:14:06.793Z,3.80
2018-12-11T22:16:34.929Z,3.27
2018-12-11T22:19:03.069Z,4.20
2018-12-11T22:21:31.194Z,4.17
2018-12-11T22:23:59.301Z,3.90
2018-12-11T22:26:27.445Z,4.30
2018-12-11T22:28:55.563Z,3.97
2018-12-11T22:31:23.673Z,4.40
2018-12-11T22:33:51.816Z,4.60
2018-12-11T22:36:19.974Z,5.03
2018-12-11T22:38:48.090Z,4.33
2018-12-11T22:41:16.213Z,4.70
2018-12-11T22:43:44.336Z,4.50
2018-12-11T22:46:12.615Z,4.93
2018-12-11T22:48:40.834Z,4.60
2018-12-11T22:51:09.467Z,4.63
2018-12-11T22:53:37.676Z,4.23
2018-12-11T22:56:05.777Z,4.20
2018-12-11T22:58:34.673Z,4.63
2018-12-11T23:01:03.220Z,4.43
2018-12-11T23:03:31.464Z,4.67
2018-12-11T23:05:59.584Z,5.20
2018-12-11T23:08:27.703Z,4.97
2018-12-11T23:10:55.862Z,4.47
2018-12-11T23:13:23.971Z,4.63
2018-12-11T23:15:52.227Z,4.53
2018-12-11T23:18:20.421Z,4.47
2018-12-11T23:20:48.555Z,4.47
2018-12-11T23:23:16.720Z,4.67
2018-12-11T23:25:44.977Z,4.73
2018-12-11T23:28:13.105Z,3.93
2018-12-11T23:30:41.210Z,4.73
2018-12-11T23:33:09.390Z,5.10
2018-12-11T23:35:37.509Z,4.47
2018-12-11T23:38:05.644Z,5.00
2018-12-11T23:40:33.802Z,4.57
2018-12-11T23:43:01.952Z,5.10
2018-12-11T23:45:30.062Z,4.10
2018-12-11T23:47:58.184Z,4.93
2018-12-11T23:50:26.305Z,4.47
2018-12-11T23:52:54.416Z,4.70
2018-12-11T23:55:22.554Z,4.60
2018-12-11T23:57:50.736Z,4.93
